createdAt,value
2019-02-24T00:02:03.940Z,2.53
2019-02-24T00:04:32.212Z,2.10
2019-02-24T00:07:00.505Z,2.67
2019-02-24T00:09:28.769Z,2.63
2019-02-24T00:11:56.986Z,2.93
2019-02-24T00:14:25.245Z,2.40
2019-02-24T00:16:53.457Z,1.90
2019-02-24T00:19:21.650Z,2.23
2019-02-24T00:21:49.842Z,2.00
2019-02-24T00:24:18.063Z,1.63
2019-02-24T00:26:46.318Z,1.60
2019-02-24T00:29:14.604Z,2.03
2019-02-24T00:31:42.857Z,2.13
2019-02-24T00:34:11.141Z,1.67
2019-02-24T00:36:39.401Z,1.77
2019-02-24T00:39:07.789Z,1.50
2019-02-24T00:41:36.052Z,1.77
2019-02-24T00:44:04.330Z,1.77
2019-02-24T00:46:32.851Z,1.70
2019-02-24T00:49:01.110Z,1.90
2019-02-24T00:51:29.331Z,1.97
2019-02-24T00:53:57.589Z,1.60
2019-02-24T00:56:25.874Z,1.40
2019-02-24T00:58:54.139Z,1.80
2019-02-24T01:01:22.431Z,1.63
2019-02-24T01:03:50.695Z,1.87
2019-02-24T01:06:18.992Z,1.87
2019-02-24T01:08:47.256Z,2.50
2019-02-24T01:11:15.517Z,1.93
2019-02-24T01:13:43.734Z,1.80
2019-02-24T01:16:11.929Z,1.90
2019-02-24T01:18:40.146Z,1.70
2019-02-24T01:21:08.333Z,1.50
2019-02-24T01:23:36.622Z,1.87
2019-02-24T01:26:04.882Z,1.80
2019-02-24T01:28:33.098Z,2.00
2019-02-24T01:31:01.369Z,2.00
2019-02-24T01:33:29.667Z,1.73
2019-02-24T01:35:57.930Z,2.20
2019-02-24T01:38:26.189Z,1.80
2019-02-24T01:40:54.414Z,2.50
2019-02-24T01:43:22.680Z,1.97
2019-02-24T01:45:50.974Z,1.67
2019-02-24T01:48:21.084Z,2.00
2019-02-24T01:50:49.174Z,1.47
2019-02-24T01:53:17.363Z,1.57
2019-02-24T01:55:45.653Z,1.70
2019-02-24T01:58:13.922Z,1.60
2019-02-24T02:00:42.213Z,1.70
2019-02-24T02:03:10.478Z,1.63
2019-02-24T02:05:38.715Z,1.70
2019-02-24T02:08:06.985Z,1.50
2019-02-24T02:10:35.255Z,1.53
2019-02-24T02:13:03.545Z,1.80
2019-02-24T02:15:31.811Z,2.00
2019-02-24T02:18:00.098Z,1.40
2019-02-24T02:20:28.363Z,2.17
2019-02-24T02:22:56.658Z,1.57
2019-02-24T02:25:24.853Z,2.30
2019-02-24T02:27:53.070Z,1.53
2019-02-24T02:30:21.264Z,1.70
2019-02-24T02:32:49.582Z,2.00
2019-02-24T02:35:17.910Z,1.83
2019-02-24T02:37:46.126Z,1.80
2019-02-24T02:40:14.393Z,1.73
2019-02-24T02:42:42.709Z,1.90
2019-02-24T02:45:10.978Z,2.17
2019-02-24T02:47:39.178Z,2.20
2019-02-24T02:50:07.538Z,2.10
2019-02-24T02:52:35.803Z,2.10
2019-02-24T02:55:05.171Z,2.17
2019-02-24T02:57:33.435Z,2.10
2019-02-24T03:00:01.726Z,1.90
2019-02-24T03:02:29.993Z,1.80
2019-02-24T03:04:58.318Z,1.90
2019-02-24T03:07:37.186Z,1.50
2019-02-24T03:10:05.526Z,2.33
2019-02-24T03:12:33.822Z,2.13
2019-02-24T03:15:02.085Z,1.57
2019-02-24T03:17:30.370Z,2.10
2019-02-24T03:19:58.568Z,1.50
2019-02-24T03:22:26.869Z,1.50
2019-02-24T03:24:55.135Z,1.77
2019-02-24T03:27:23.421Z,1.90
2019-02-24T03:29:51.610Z,1.97
2019-02-24T03:32:20.057Z,1.60
2019-02-24T03:34:48.289Z,1.50
2019-02-24T03:37:16.550Z,1.80
2019-02-24T03:39:44.838Z,1.90
2019-02-24T03:42:13.887Z,2.00
2019-02-24T03:44:42.187Z,1.70
2019-02-24T03:47:10.445Z,1.67
2019-02-24T03:49:38.666Z,1.70
2019-02-24T03:52:06.934Z,3.00
2019-02-24T03:54:35.222Z,1.70
2019-02-24T03:57:03.557Z,1.70
2019-02-24T03:59:31.827Z,1.87
2019-02-24T04:02:00.113Z,2.60
2019-02-24T04:04:28.446Z,2.60
2019-02-24T04:06:56.666Z,1.60
2019-02-24T04:09:24.857Z,1.90
2019-02-24T04:11:53.083Z,2.03
2019-02-24T04:14:21.354Z,1.73
2019-02-24T04:16:49.651Z,2.10
2019-02-24T04:19:17.923Z,1.70
2019-02-24T04:21:46.205Z,2.67
2019-02-24T04:24:14.394Z,2.50
2019-02-24T04:26:42.610Z,1.90
2019-02-24T04:29:10.882Z,1.93
2019-02-24T04:31:39.190Z,2.10
2019-02-24T04:34:07.381Z,1.93
2019-02-24T04:36:35.571Z,1.93
2019-02-24T04:39:04.330Z,1.90
2019-02-24T04:41:32.598Z,1.90
2019-02-24T04:44:00.897Z,1.70
2019-02-24T04:46:29.159Z,1.90
2019-02-24T04:48:57.449Z,1.90
2019-02-24T04:51:25.718Z,1.50
2019-02-24T04:53:54.010Z,2.17
2019-02-24T04:56:22.276Z,2.40
2019-02-24T04:58:50.566Z,2.00
2019-02-24T05:01:18.829Z,2.17
2019-02-24T05:03:47.042Z,1.80
2019-02-24T05:06:15.303Z,1.80
2019-02-24T05:08:43.567Z,2.00
2019-02-24T05:11:11.864Z,1.90
2019-02-24T05:13:40.130Z,1.70
2019-02-24T05:16:08.418Z,1.83
2019-02-24T05:18:36.682Z,1.80
2019-02-24T05:21:04.978Z,2.50
2019-02-24T05:23:33.241Z,2.50
2019-02-24T05:26:01.541Z,2.40
2019-02-24T05:28:29.810Z,2.50
2019-02-24T05:30:58.112Z,2.20
2019-02-24T05:33:26.373Z,1.70
2019-02-24T05:35:54.567Z,1.43
2019-02-24T05:38:22.863Z,1.77
2019-02-24T05:40:51.122Z,2.00
2019-02-24T05:43:19.419Z,1.87
2019-02-24T05:45:47.682Z,2.10
2019-02-24T05:48:15.972Z,1.90
2019-02-24T05:50:44.249Z,2.23
2019-02-24T05:53:12.542Z,2.00
2019-02-24T05:55:40.812Z,2.23
2019-02-24T05:58:09.126Z,1.87
2019-02-24T06:00:37.394Z,2.27
2019-02-24T06:03:05.663Z,2.40
2019-02-24T06:05:33.955Z,2.13
2019-02-24T06:08:02.223Z,1.90
2019-02-24T06:10:30.510Z,1.67
2019-02-24T06:12:58.698Z,1.80
2019-02-24T06:15:26.998Z,1.60
2019-02-24T06:17:55.259Z,2.20
2019-02-24T06:20:23.559Z,2.13
2019-02-24T06:22:51.825Z,2.07
2019-02-24T06:25:20.119Z,2.23
2019-02-24T06:27:48.382Z,2.07
2019-02-24T06:30:16.676Z,2.60
2019-02-24T06:32:44.938Z,2.20
2019-02-24T06:35:13.228Z,1.80
2019-02-24T06:37:41.491Z,2.50
2019-02-24T06:40:09.765Z,2.47
2019-02-24T06:42:38.058Z,2.17
2019-02-24T06:45:07.594Z,1.83
2019-02-24T06:47:36.007Z,2.20
2019-02-24T06:50:05.922Z,2.60
2019-02-24T06:52:34.144Z,2.57
2019-02-24T06:55:02.413Z,2.53
2019-02-24T06:57:31.066Z,2.43
2019-02-24T06:59:59.328Z,2.63
2019-02-24T07:02:27.618Z,2.83
2019-02-24T07:04:55.892Z,2.43
2019-02-24T07:07:24.173Z,2.40
2019-02-24T07:09:52.373Z,2.80
2019-02-24T07:12:20.644Z,2.50
2019-02-24T07:14:48.861Z,2.37
2019-02-24T07:17:17.126Z,2.60
2019-02-24T07:19:45.353Z,2.90
2019-02-24T07:22:13.542Z,2.50
2019-02-24T07:24:41.834Z,2.43
2019-02-24T07:27:10.026Z,2.60
2019-02-24T07:29:38.246Z,2.43
2019-02-24T07:32:06.441Z,2.40
2019-02-24T07:34:34.702Z,2.50
2019-02-24T07:37:03.000Z,2.10
2019-02-24T07:39:31.277Z,12.30
2019-02-24T07:41:59.570Z,3.40
2019-02-24T07:44:27.836Z,17.00
2019-02-24T07:46:56.150Z,9.10
2019-02-24T07:49:24.342Z,3.80
2019-02-24T07:51:52.629Z,4.23
2019-02-24T07:54:20.900Z,3.00
2019-02-24T07:56:49.195Z,3.27
2019-02-24T07:59:17.450Z,3.07
2019-02-24T08:01:45.741Z,3.00
2019-02-24T08:04:14.001Z,3.00
2019-02-24T08:06:42.273Z,2.40
2019-02-24T08:09:10.561Z,2.90
2019-02-24T08:11:38.756Z,2.50
2019-02-24T08:14:07.073Z,3.13
2019-02-24T08:16:35.315Z,3.00
2019-02-24T08:19:03.585Z,2.73
2019-02-24T08:21:31.774Z,2.80
2019-02-24T08:24:00.077Z,3.37
2019-02-24T08:26:28.338Z,3.10
2019-02-24T08:28:56.525Z,3.13
2019-02-24T08:31:24.737Z,3.00
2019-02-24T08:33:52.922Z,3.53
2019-02-24T08:36:21.211Z,3.63
2019-02-24T08:38:49.473Z,3.43
2019-02-24T08:41:17.682Z,3.23
2019-02-24T08:43:45.945Z,4.00
2019-02-24T08:46:14.225Z,2.80
2019-02-24T08:48:42.493Z,3.10
2019-02-24T08:51:10.730Z,3.60
2019-02-24T08:53:38.994Z,3.00
2019-02-24T08:56:07.255Z,3.33
2019-02-24T08:58:35.542Z,3.30
2019-02-24T09:01:03.973Z,3.33
2019-02-24T09:03:32.258Z,2.93
2019-02-24T09:06:00.517Z,3.67
2019-02-24T09:08:28.810Z,2.80
2019-02-24T09:10:57.630Z,2.90
2019-02-24T09:13:25.850Z,3.03
2019-02-24T09:15:54.406Z,3.40
2019-02-24T09:18:22.662Z,2.67
2019-02-24T09:20:50.986Z,3.17
2019-02-24T09:23:19.239Z,3.10
2019-02-24T09:25:47.526Z,2.83
2019-02-24T09:28:15.797Z,4.40
2019-02-24T09:30:44.021Z,3.57
2019-02-24T09:33:12.282Z,3.00
2019-02-24T09:35:40.759Z,3.13
2019-02-24T09:38:09.026Z,3.20
2019-02-24T09:40:37.353Z,3.23
2019-02-24T09:43:05.568Z,3.13
2019-02-24T09:45:33.825Z,3.23
2019-02-24T09:48:02.042Z,3.50
2019-02-24T09:50:30.370Z,3.57
2019-02-24T09:52:58.586Z,3.47
2019-02-24T09:55:26.775Z,3.60
2019-02-24T09:57:55.059Z,3.27
2019-02-24T10:00:23.322Z,3.10
2019-02-24T10:02:51.612Z,3.17
2019-02-24T10:05:20.126Z,3.27
2019-02-24T10:07:48.392Z,3.27
2019-02-24T10:10:16.685Z,2.97
2019-02-24T10:12:44.940Z,2.80
2019-02-24T10:15:13.698Z,3.33
2019-02-24T10:17:41.955Z,3.30
2019-02-24T10:20:10.842Z,3.20
2019-02-24T10:22:39.102Z,3.40
2019-02-24T10:25:07.781Z,3.00
2019-02-24T10:27:36.045Z,3.30
2019-02-24T10:30:14.110Z,3.17
2019-02-24T10:32:42.375Z,3.40
2019-02-24T10:35:10.902Z,3.30
2019-02-24T10:37:39.199Z,3.60
2019-02-24T10:40:08.994Z,5.33
2019-02-24T10:42:37.285Z,4.03
2019-02-24T10:45:07.013Z,4.07
2019-02-24T10:47:35.801Z,4.03
2019-02-24T10:50:05.826Z,3.97
2019-02-24T10:52:34.041Z,4.73
2019-02-24T10:55:02.467Z,4.27
2019-02-24T10:57:30.753Z,3.80
2019-02-24T10:59:59.527Z,4.37
2019-02-24T11:02:27.815Z,3.30
2019-02-24T11:04:56.149Z,3.87
2019-02-24T11:07:24.405Z,3.60
2019-02-24T11:09:52.692Z,3.57
2019-02-24T11:12:21.331Z,3.33
2019-02-24T11:14:49.613Z,3.43
2019-02-24T11:17:18.506Z,3.43
2019-02-24T11:19:49.159Z,3.87
2019-02-24T11:22:18.398Z,3.43
2019-02-24T11:24:46.692Z,4.20
2019-02-24T11:27:14.963Z,3.70
2019-02-24T11:29:43.249Z,3.27
2019-02-24T11:32:11.998Z,3.23
2019-02-24T11:34:41.366Z,3.03
2019-02-24T11:37:09.860Z,3.53
2019-02-24T11:39:38.122Z,3.00
2019-02-24T11:42:06.482Z,3.43
2019-02-24T11:44:34.913Z,3.40
2019-02-24T11:47:05.354Z,3.07
2019-02-24T11:49:34.446Z,2.83
2019-02-24T11:52:04.049Z,3.27
2019-02-24T11:54:32.430Z,2.87
2019-02-24T11:57:02.045Z,3.03
2019-02-24T11:59:30.306Z,2.40
2019-02-24T12:01:58.779Z,2.90
2019-02-24T12:04:27.834Z,2.30
2019-02-24T12:06:56.469Z,2.50
2019-02-24T12:09:25.711Z,3.80
2019-02-24T12:11:56.897Z,2.80
2019-02-24T12:14:26.113Z,2.67
2019-02-24T12:16:54.533Z,2.70
2019-02-24T12:19:22.926Z,2.80
2019-02-24T12:21:51.226Z,6.50
2019-02-24T12:24:20.615Z,2.80
2019-02-24T12:26:49.134Z,2.63
2019-02-24T12:29:17.430Z,2.70
2019-02-24T12:31:46.686Z,2.57
2019-02-24T12:34:16.724Z,2.50
2019-02-24T12:36:46.223Z,3.57
2019-02-24T12:39:15.111Z,2.50
2019-02-24T12:41:43.603Z,2.70
2019-02-24T12:44:11.866Z,3.10
2019-02-24T12:46:40.082Z,2.60
2019-02-24T12:49:08.274Z,2.63
2019-02-24T12:51:36.566Z,3.03
2019-02-24T12:54:04.754Z,2.43
2019-02-24T12:56:33.043Z,3.40
2019-02-24T12:59:01.301Z,3.17
2019-02-24T13:01:29.590Z,2.50
2019-02-24T13:03:57.777Z,2.43
2019-02-24T13:06:26.118Z,3.40
2019-02-24T13:08:54.619Z,2.80
2019-02-24T13:11:23.042Z,2.20
2019-02-24T13:13:52.657Z,2.30
2019-02-24T13:16:20.922Z,2.00
2019-02-24T13:18:49.277Z,2.27
2019-02-24T13:21:17.543Z,2.10
2019-02-24T13:23:45.825Z,1.50
2019-02-24T13:26:14.010Z,1.50
2019-02-24T13:28:50.210Z,1.40
2019-02-24T13:31:12.134Z,1.40
2019-02-24T13:33:40.443Z,1.57
2019-02-24T13:36:08.714Z,1.80
2019-02-24T13:38:36.973Z,1.40
2019-02-24T13:41:06.514Z,1.40
2019-02-24T13:43:34.778Z,1.40
2019-02-24T13:46:04.702Z,1.50
2019-02-24T13:48:33.078Z,1.57
2019-02-24T13:51:01.627Z,1.30
2019-02-24T13:53:29.818Z,1.40
2019-02-24T13:55:58.105Z,1.47
2019-02-24T13:58:26.291Z,1.40
2019-02-24T14:00:54.813Z,1.40
2019-02-24T14:03:23.042Z,1.47
2019-02-24T14:05:51.353Z,1.17
2019-02-24T14:08:21.130Z,1.93
2019-02-24T14:10:49.602Z,1.17
2019-02-24T14:13:19.582Z,1.57
2019-02-24T14:15:47.848Z,1.33
2019-02-24T14:18:18.546Z,1.40
2019-02-24T14:20:46.813Z,1.53
2019-02-24T14:23:15.802Z,1.57
2019-02-24T14:25:45.110Z,1.67
2019-02-24T14:28:14.478Z,1.73
2019-02-24T14:30:43.644Z,1.70
2019-02-24T14:33:13.654Z,1.37
2019-02-24T14:35:42.871Z,1.10
2019-02-24T14:38:12.858Z,1.93
2019-02-24T14:40:42.113Z,1.60
2019-02-24T14:43:11.706Z,1.90
2019-02-24T14:45:39.971Z,1.63
2019-02-24T14:48:08.421Z,1.50
2019-02-24T14:50:36.770Z,1.43
2019-02-24T14:53:05.068Z,1.60
2019-02-24T14:55:33.328Z,1.60
2019-02-24T14:58:01.618Z,1.30
2019-02-24T15:00:29.890Z,1.43
2019-02-24T15:02:59.007Z,1.30
2019-02-24T15:05:28.239Z,1.40
2019-02-24T15:07:56.462Z,1.60
2019-02-24T15:10:25.682Z,1.63
2019-02-24T15:12:53.970Z,1.70
2019-02-24T15:15:32.502Z,1.50
2019-02-24T15:17:56.723Z,1.50
2019-02-24T15:20:25.121Z,1.40
2019-02-24T15:22:53.392Z,1.33
2019-02-24T15:25:21.678Z,1.50
2019-02-24T15:27:49.947Z,1.30
2019-02-24T15:30:25.670Z,1.53
2019-02-24T15:32:53.934Z,1.77
2019-02-24T15:35:22.218Z,1.80
2019-02-24T15:37:50.409Z,1.83
2019-02-24T15:40:18.694Z,2.20
2019-02-24T15:42:46.958Z,2.50
2019-02-24T15:45:15.333Z,2.13
2019-02-24T15:47:43.602Z,2.30
2019-02-24T15:50:12.527Z,1.80
2019-02-24T15:52:40.814Z,2.43
2019-02-24T15:55:09.850Z,2.50
2019-02-24T15:57:38.138Z,2.57
2019-02-24T16:00:08.635Z,2.50
2019-02-24T16:02:38.626Z,2.10
2019-02-24T16:05:07.956Z,2.07
2019-02-24T16:07:36.175Z,2.37
2019-02-24T16:10:06.304Z,1.87
2019-02-24T16:12:34.585Z,2.07
2019-02-24T16:15:02.942Z,2.10
2019-02-24T16:17:31.129Z,2.30
2019-02-24T16:19:59.341Z,2.07
2019-02-24T16:22:27.525Z,2.53
2019-02-24T16:24:55.736Z,2.20
2019-02-24T16:27:24.007Z,2.20
2019-02-24T16:29:52.293Z,2.53
2019-02-24T16:32:20.490Z,2.50
2019-02-24T16:34:48.777Z,2.93
2019-02-24T16:37:17.042Z,1.80
2019-02-24T16:39:45.342Z,2.43
2019-02-24T16:42:13.605Z,2.53
2019-02-24T16:44:42.071Z,2.10
2019-02-24T16:47:10.397Z,1.90
2019-02-24T16:49:38.899Z,3.00
2019-02-24T16:52:07.158Z,2.63
2019-02-24T16:54:35.342Z,3.50
2019-02-24T16:57:05.917Z,3.17
2019-02-24T16:59:33.550Z,3.97
2019-02-24T17:02:01.761Z,3.83
2019-02-24T17:04:30.029Z,4.10
2019-02-24T17:06:58.317Z,5.60
2019-02-24T17:09:26.510Z,4.23
2019-02-24T17:11:54.727Z,7.90
2019-02-24T17:14:24.831Z,5.40
2019-02-24T17:17:01.211Z,4.47
2019-02-24T17:19:22.871Z,3.30
2019-02-24T17:21:51.147Z,3.77
2019-02-24T17:24:19.378Z,2.93
2019-02-24T17:26:47.617Z,3.63
2019-02-24T17:29:15.834Z,3.00
2019-02-24T17:31:44.093Z,4.27
2019-02-24T17:34:12.382Z,6.10
2019-02-24T17:36:40.646Z,5.70
2019-02-24T17:39:08.934Z,8.07
2019-02-24T17:41:37.201Z,13.10
2019-02-24T17:44:05.443Z,8.47
2019-02-24T17:46:33.685Z,10.83
2019-02-24T17:49:01.883Z,8.30
2019-02-24T17:51:30.178Z,12.20
2019-02-24T17:53:58.447Z,8.50
2019-02-24T17:56:26.741Z,8.10
2019-02-24T17:58:54.975Z,6.07
2019-02-24T18:01:23.219Z,6.00
2019-02-24T18:03:51.482Z,4.50
2019-02-24T18:06:19.775Z,3.90
2019-02-24T18:08:48.033Z,4.73
2019-02-24T18:11:16.251Z,5.20
2019-02-24T18:13:44.522Z,4.30
2019-02-24T18:16:12.841Z,3.90
2019-02-24T18:18:41.378Z,3.53
2019-02-24T18:21:09.565Z,2.90
2019-02-24T18:23:37.782Z,2.53
2019-02-24T18:26:05.969Z,3.67
2019-02-24T18:28:34.187Z,3.20
2019-02-24T18:31:02.452Z,2.60
2019-02-24T18:33:30.737Z,2.63
2019-02-24T18:35:58.923Z,2.93
2019-02-24T18:38:28.064Z,2.27
2019-02-24T18:40:56.360Z,3.20
2019-02-24T18:43:24.814Z,3.97
2019-02-24T18:45:53.073Z,5.20
2019-02-24T18:48:24.142Z,4.87
2019-02-24T18:50:52.433Z,4.67
2019-02-24T18:53:20.617Z,3.00
2019-02-24T18:55:48.918Z,3.07
2019-02-24T18:58:17.165Z,2.80
2019-02-24T19:00:45.458Z,2.70
2019-02-24T19:03:13.718Z,2.60
2019-02-24T19:05:42.031Z,2.47
2019-02-24T19:08:10.294Z,2.37
2019-02-24T19:10:38.558Z,2.43
2019-02-24T19:13:06.917Z,3.20
2019-02-24T19:15:35.119Z,2.60
2019-02-24T19:18:03.398Z,2.40
2019-02-24T19:20:31.663Z,2.70
2019-02-24T19:23:00.002Z,2.83
2019-02-24T19:25:28.194Z,2.43
2019-02-24T19:28:03.065Z,2.40
2019-02-24T19:30:31.030Z,2.53
2019-02-24T19:32:59.241Z,3.03
2019-02-24T19:35:27.503Z,2.60
2019-02-24T19:37:55.773Z,2.53
2019-02-24T19:40:24.058Z,2.60
2019-02-24T19:42:52.325Z,3.00
2019-02-24T19:45:21.586Z,2.70
2019-02-24T19:47:49.842Z,2.63
2019-02-24T19:50:18.199Z,2.57
2019-02-24T19:52:46.451Z,3.97
2019-02-24T19:55:15.207Z,3.10
2019-02-24T19:57:43.738Z,3.40
2019-02-24T20:00:13.582Z,3.40
2019-02-24T20:02:41.852Z,3.00
2019-02-24T20:05:10.175Z,2.90
2019-02-24T20:07:38.470Z,2.97
2019-02-24T20:10:08.501Z,3.37
2019-02-24T20:12:36.798Z,3.53
2019-02-24T20:15:06.526Z,2.77
2019-02-24T20:17:34.815Z,3.00
2019-02-24T20:20:03.249Z,3.53
2019-02-24T20:22:31.542Z,4.20
2019-02-24T20:24:59.735Z,4.10
2019-02-24T20:27:27.998Z,3.17
2019-02-24T20:29:56.185Z,3.17
2019-02-24T20:32:24.409Z,2.63
2019-02-24T20:34:52.695Z,3.20
2019-02-24T20:37:20.882Z,3.00
2019-02-24T20:39:49.198Z,3.17
2019-02-24T20:42:17.459Z,3.87
2019-02-24T20:44:45.749Z,3.20
2019-02-24T20:47:13.940Z,2.87
2019-02-24T20:49:42.279Z,2.77
2019-02-24T20:52:10.547Z,2.90
2019-02-24T20:54:38.809Z,2.60
2019-02-24T20:57:07.022Z,3.50
2019-02-24T20:59:35.290Z,3.13
2019-02-24T21:02:03.581Z,3.27
2019-02-24T21:04:31.842Z,3.67
2019-02-24T21:07:00.058Z,2.90
2019-02-24T21:09:28.323Z,3.73
2019-02-24T21:11:56.610Z,2.90
2019-02-24T21:14:24.887Z,3.10
2019-02-24T21:16:53.165Z,3.20
2019-02-24T21:19:21.358Z,3.93
2019-02-24T21:21:49.621Z,2.63
2019-02-24T21:24:17.839Z,3.23
2019-02-24T21:26:46.107Z,3.20
2019-02-24T21:29:14.492Z,3.77
2019-02-24T21:31:42.823Z,3.60
2019-02-24T21:34:11.167Z,3.40
2019-02-24T21:36:39.425Z,4.23
2019-02-24T21:39:08.106Z,4.50
2019-02-24T21:41:36.374Z,4.43
2019-02-24T21:44:04.667Z,4.50
2019-02-24T21:46:32.934Z,5.27
2019-02-24T21:49:01.117Z,4.63
2019-02-24T21:51:29.334Z,5.00
2019-02-24T21:53:57.634Z,4.80
2019-02-24T21:56:25.914Z,5.03
2019-02-24T21:58:54.180Z,5.53
2019-02-24T22:01:22.483Z,5.90
2019-02-24T22:03:50.918Z,6.10
2019-02-24T22:06:19.129Z,5.03
2019-02-24T22:08:47.393Z,4.73
2019-02-24T22:11:15.678Z,5.50
2019-02-24T22:13:43.942Z,4.60
2019-02-24T22:16:12.523Z,4.33
2019-02-24T22:18:40.790Z,4.50
2019-02-24T22:21:08.994Z,4.10
2019-02-24T22:23:37.285Z,5.03
2019-02-24T22:26:05.476Z,5.00
2019-02-24T22:28:33.778Z,4.57
2019-02-24T22:31:02.045Z,4.43
2019-02-24T22:33:30.262Z,4.57
2019-02-24T22:35:58.529Z,4.03
2019-02-24T22:38:26.822Z,4.77
2019-02-24T22:40:55.026Z,3.90
2019-02-24T22:43:23.313Z,5.60
2019-02-24T22:45:51.577Z,5.00
2019-02-24T22:48:19.838Z,4.30
2019-02-24T22:50:48.122Z,4.53
2019-02-24T22:53:16.385Z,4.73
2019-02-24T22:55:44.669Z,4.53
2019-02-24T22:58:12.930Z,4.10
2019-02-24T23:00:53.278Z,4.67
2019-02-24T23:03:23.067Z,5.00
2019-02-24T23:05:51.378Z,4.50
2019-02-24T23:08:19.705Z,4.40
2019-02-24T23:10:47.957Z,4.27
2019-02-24T23:13:16.249Z,3.57
2019-02-24T23:15:44.433Z,4.17
2019-02-24T23:18:12.730Z,4.30
2019-02-24T23:20:40.990Z,4.67
2019-02-24T23:23:09.290Z,4.70
2019-02-24T23:25:37.557Z,4.70
2019-02-24T23:28:05.848Z,4.57
2019-02-24T23:30:34.177Z,4.03
2019-02-24T23:33:02.389Z,3.90
2019-02-24T23:35:30.647Z,3.60
2019-02-24T23:37:58.833Z,4.37
2019-02-24T23:40:27.121Z,4.30
2019-02-24T23:42:55.386Z,3.63
2019-02-24T23:45:23.601Z,3.77
2019-02-24T23:47:51.861Z,3.43
2019-02-24T23:50:20.154Z,3.70
2019-02-24T23:52:48.414Z,3.67
2019-02-24T23:55:16.627Z,4.33
2019-02-24T23:57:44.881Z,4.10
